createdAt,value
2019-02-27T00:01:21.744Z,13.37
2019-02-27T00:07:14.847Z,12.53
2019-02-27T00:16:12.389Z,12.07
2019-02-27T00:22:08.907Z,12.43
2019-02-27T00:24:56.668Z,11.97
2019-02-27T00:27:48.742Z,12.87
2019-02-27T00:30:37.868Z,12.33
2019-02-27T00:33:26.102Z,11.63
2019-02-27T00:36:32.423Z,11.90
2019-02-27T00:39:20.441Z,12.70
2019-02-27T00:42:08.248Z,13.33
2019-02-27T00:44:56.108Z,13.03
2019-02-27T00:48:18.068Z,12.80
2019-02-27T00:50:53.634Z,13.40
2019-02-27T00:53:41.397Z,13.03
2019-02-27T00:59:32.896Z,12.37
2019-02-27T01:02:20.827Z,12.67
2019-02-27T01:05:31.365Z,12.57
2019-02-27T01:08:19.171Z,14.27
2019-02-27T01:11:06.967Z,12.80
2019-02-27T01:16:50.182Z,13.93
2019-02-27T01:19:39.694Z,14.37
2019-02-27T01:22:27.698Z,12.50
2019-02-27T01:25:15.722Z,13.17
2019-02-27T01:28:03.765Z,12.67
2019-02-27T01:30:51.539Z,13.03
2019-02-27T01:36:54.894Z,13.20
2019-02-27T01:39:44.126Z,12.60
2019-02-27T01:43:07.279Z,13.60
2019-02-27T01:45:57.410Z,11.77
2019-02-27T01:48:33.631Z,11.17
2019-02-27T01:51:40.843Z,11.90
2019-02-27T01:54:28.630Z,11.60
2019-02-27T01:57:16.657Z,12.10
2019-02-27T02:00:25.393Z,11.93
2019-02-27T02:03:13.710Z,11.83
2019-02-27T02:06:17.404Z,12.20
2019-02-27T02:09:13.687Z,11.70
2019-02-27T02:12:22.439Z,11.57
2019-02-27T02:15:05.576Z,12.33
2019-02-27T02:17:45.977Z,12.87
2019-02-27T02:20:27.225Z,12.23
2019-02-27T02:23:08.957Z,11.00
2019-02-27T02:25:50.461Z,12.40
2019-02-27T02:28:31.043Z,12.07
2019-02-27T02:31:11.896Z,11.13
2019-02-27T02:33:53.715Z,10.90
2019-02-27T02:36:34.373Z,11.10
2019-02-27T02:39:17.951Z,11.50
2019-02-27T02:41:59.864Z,10.33
2019-02-27T02:44:40.530Z,10.33
2019-02-27T02:47:21.519Z,11.30
2019-02-27T02:50:02.369Z,10.80
2019-02-27T02:52:43.047Z,10.37
2019-02-27T02:55:23.717Z,10.77
2019-02-27T02:58:07.991Z,9.87
2019-02-27T03:00:50.038Z,10.90
2019-02-27T03:03:37.054Z,10.30
2019-02-27T03:09:02.288Z,10.27
2019-02-27T03:11:44.655Z,10.47
2019-02-27T03:14:25.336Z,10.40
2019-02-27T03:17:07.525Z,10.33
2019-02-27T03:19:53.430Z,9.97
2019-02-27T03:22:40.176Z,10.40
2019-02-27T03:25:17.952Z,10.33
2019-02-27T03:28:04.674Z,9.90
2019-02-27T03:30:42.775Z,10.03
2019-02-27T03:33:27.112Z,9.40
2019-02-27T03:36:07.344Z,10.43
2019-02-27T03:38:47.899Z,10.53
2019-02-27T03:41:30.280Z,10.73
2019-02-27T03:44:11.141Z,10.70
2019-02-27T03:46:54.045Z,10.43
2019-02-27T03:49:40.739Z,10.40
2019-02-27T03:52:21.296Z,9.73
2019-02-27T03:55:01.998Z,10.20
2019-02-27T03:57:43.487Z,9.90
2019-02-27T04:00:38.185Z,10.50
2019-02-27T04:03:06.756Z,11.23
2019-02-27T04:05:47.715Z,10.10
2019-02-27T04:08:28.476Z,10.67
2019-02-27T04:11:09.457Z,9.97
2019-02-27T04:13:50.876Z,10.17
2019-02-27T04:16:31.612Z,9.67
2019-02-27T04:19:12.505Z,10.17
2019-02-27T04:21:53.687Z,10.10
2019-02-27T04:24:35.143Z,10.07
2019-02-27T04:27:20.215Z,9.77
2019-02-27T04:29:57.874Z,9.47
2019-02-27T04:32:40.710Z,9.57
2019-02-27T04:35:21.892Z,10.33
2019-02-27T04:40:48.417Z,10.57
2019-02-27T04:46:21.562Z,10.67
2019-02-27T04:51:48.062Z,9.30
2019-02-27T04:54:29.835Z,9.30
2019-02-27T04:57:10.534Z,8.70
2019-02-27T04:59:52.344Z,8.67
2019-02-27T05:02:33.708Z,9.10
2019-02-27T05:05:14.351Z,9.73
2019-02-27T05:07:54.984Z,10.07
2019-02-27T05:10:38.176Z,10.60
2019-02-27T05:13:20.902Z,9.90
2019-02-27T05:16:04.621Z,10.47
2019-02-27T05:18:47.712Z,10.93
2019-02-27T05:21:28.543Z,10.83
2019-02-27T05:24:11.721Z,10.17
2019-02-27T05:26:52.718Z,10.57
2019-02-27T05:29:35.165Z,10.47
2019-02-27T05:32:18.114Z,11.10
2019-02-27T05:34:58.551Z,9.83
2019-02-27T05:37:41.890Z,10.87
2019-02-27T05:40:25.969Z,10.87
2019-02-27T05:43:05.762Z,11.40
2019-02-27T05:45:46.504Z,10.70
2019-02-27T05:51:12.160Z,10.40
2019-02-27T05:53:56.154Z,16.50
2019-02-27T05:56:36.547Z,11.60
2019-02-27T05:59:17.826Z,12.17
2019-02-27T06:02:00.189Z,13.07
2019-02-27T06:04:44.363Z,12.47
2019-02-27T06:10:28.897Z,10.10
2019-02-27T06:13:14.045Z,10.40
2019-02-27T06:15:52.670Z,10.03
2019-02-27T06:18:33.643Z,10.43
2019-02-27T06:21:16.662Z,10.17
2019-02-27T06:23:58.770Z,9.70
2019-02-27T06:26:40.879Z,11.70
2019-02-27T06:32:12.366Z,12.10
2019-02-27T06:34:53.706Z,11.17
2019-02-27T06:37:37.596Z,11.40
2019-02-27T06:40:22.056Z,10.73
2019-02-27T06:43:06.019Z,10.57
2019-02-27T06:54:25.494Z,11.07
2019-02-27T06:59:57.086Z,10.70
2019-02-27T07:08:26.929Z,10.50
2019-02-27T07:11:10.526Z,10.93
2019-02-27T07:19:35.450Z,11.00
2019-02-27T07:36:45.152Z,13.60
2019-02-27T07:45:16.379Z,14.50
2019-02-27T07:47:58.849Z,12.10
2019-02-27T07:56:45.231Z,14.30
2019-02-27T08:01:57.058Z,13.53
2019-02-27T08:48:34.488Z,14.67
2019-02-27T08:51:18.131Z,13.90
2019-02-27T08:56:49.814Z,15.77
2019-02-27T09:02:29.210Z,15.23
2019-02-27T09:25:23.611Z,15.77
2019-02-27T09:28:03.651Z,15.90
2019-02-27T09:36:43.002Z,16.13
2019-02-27T09:45:08.281Z,16.10
2019-02-27T09:50:42.255Z,17.10
2019-02-27T09:53:25.361Z,15.73
2019-02-27T09:59:00.753Z,16.03
2019-02-27T10:04:29.062Z,16.33
2019-02-27T10:10:02.362Z,15.17
2019-02-27T10:15:35.521Z,16.80
2019-02-27T10:18:19.006Z,17.27
2019-02-27T10:23:46.261Z,16.00
2019-02-27T10:38:11.217Z,17.17
2019-02-27T10:40:50.069Z,16.80
2019-02-27T10:43:30.820Z,15.77
2019-02-27T10:46:13.208Z,17.80
2019-02-27T10:48:54.265Z,16.40
2019-02-27T10:51:36.262Z,15.00
2019-02-27T10:57:05.960Z,16.90
2019-02-27T10:59:49.497Z,15.93
2019-02-27T11:02:30.341Z,16.47
2019-02-27T11:05:18.419Z,15.40
2019-02-27T11:10:46.460Z,15.77
2019-02-27T11:13:28.538Z,15.70
2019-02-27T11:16:12.614Z,16.30
2019-02-27T11:21:38.754Z,14.47
2019-02-27T11:24:21.012Z,15.23
2019-02-27T11:27:06.215Z,16.13
2019-02-27T11:32:36.826Z,15.50
2019-02-27T11:35:22.060Z,15.43
2019-02-27T11:46:41.011Z,13.73
2019-02-27T11:49:23.374Z,14.60
2019-02-27T11:52:03.995Z,14.77
2019-02-27T11:57:30.539Z,14.73
2019-02-27T12:00:13.681Z,14.73
2019-02-27T12:02:54.853Z,15.60
2019-02-27T12:08:25.747Z,14.57
2019-02-27T12:13:58.051Z,14.23
2019-02-27T12:16:42.613Z,16.17
2019-02-27T12:19:22.853Z,17.40
2019-02-27T12:22:03.402Z,16.30
2019-02-27T12:30:24.029Z,16.13
2019-02-27T12:33:05.116Z,17.13
2019-02-27T12:35:45.882Z,15.90
2019-02-27T12:38:26.509Z,15.60
2019-02-27T12:43:54.926Z,15.80
2019-02-27T12:49:27.449Z,16.07
2019-02-27T12:58:16.373Z,15.07
2019-02-27T13:00:58.595Z,15.65
2019-02-27T13:06:48.077Z,15.07
2019-02-27T13:09:17.728Z,14.13
2019-02-27T13:12:17.329Z,14.50
2019-02-27T13:14:59.503Z,14.10
2019-02-27T13:17:43.541Z,13.60
2019-02-27T13:26:03.341Z,13.50
2019-02-27T13:28:48.817Z,13.85
2019-02-27T13:31:27.334Z,13.70
2019-02-27T13:34:11.327Z,12.63
2019-02-27T13:36:51.323Z,13.65
2019-02-27T13:39:32.479Z,14.43
2019-02-27T13:47:49.466Z,12.85
2019-02-27T13:50:31.536Z,14.43
2019-02-27T13:53:12.269Z,13.25
2019-02-27T13:58:36.871Z,13.18
2019-02-27T14:01:17.640Z,11.90
2019-02-27T14:04:02.015Z,11.20
2019-02-27T14:06:47.434Z,11.57
2019-02-27T14:09:27.233Z,11.88
2019-02-27T14:12:09.774Z,12.65
2019-02-27T14:17:49.400Z,12.60
2019-02-27T14:20:29.979Z,13.13
2019-02-27T14:23:14.593Z,12.58
2019-02-27T14:28:43.599Z,11.78
2019-02-27T14:31:25.585Z,10.80
2019-02-27T14:34:09.416Z,11.57
2019-02-27T14:42:23.290Z,11.00
2019-02-27T14:45:05.982Z,9.73
2019-02-27T14:47:49.003Z,9.23
2019-02-27T14:50:34.751Z,9.70
2019-02-27T14:53:19.877Z,8.80
2019-02-27T14:56:01.409Z,9.00
2019-02-27T15:04:50.399Z,8.25
2019-02-27T15:13:28.316Z,7.78
2019-02-27T15:16:10.071Z,9.18
2019-02-27T15:18:55.052Z,8.55
2019-02-27T15:21:33.964Z,8.65
2019-02-27T15:27:08.440Z,11.03
2019-02-27T15:29:52.980Z,9.15
2019-02-27T15:32:34.327Z,10.88
2019-02-27T15:35:15.593Z,9.60
2019-02-27T15:37:56.518Z,10.48
2019-02-27T15:40:39.202Z,10.15
2019-02-27T15:43:24.682Z,10.55
2019-02-27T15:46:02.710Z,10.48
2019-02-27T15:48:45.154Z,9.60
2019-02-27T15:51:28.480Z,10.82
2019-02-27T15:54:09.233Z,9.43
2019-02-27T15:59:41.768Z,10.00
2019-02-27T16:02:22.415Z,9.98
2019-02-27T16:05:03.268Z,10.10
2019-02-27T16:07:48.487Z,9.78
2019-02-27T16:10:55.341Z,9.08
2019-02-27T16:16:25.951Z,9.80
2019-02-27T16:22:03.188Z,10.18
2019-02-27T16:24:44.013Z,9.43
2019-02-27T16:27:26.023Z,9.43
2019-02-27T16:30:08.858Z,9.85
2019-02-27T16:32:50.508Z,10.38
2019-02-27T16:35:30.773Z,12.80
2019-02-27T16:38:13.151Z,12.20
2019-02-27T16:46:44.538Z,12.50
2019-02-27T16:49:23.530Z,12.35
2019-02-27T16:52:07.830Z,10.70
2019-02-27T16:54:47.387Z,10.38
2019-02-27T16:57:29.826Z,10.90
2019-02-27T17:03:01.812Z,10.58
2019-02-27T17:05:43.216Z,10.90
2019-02-27T17:08:24.430Z,10.48
2019-02-27T17:11:05.241Z,11.05
2019-02-27T17:16:33.372Z,9.65
2019-02-27T17:19:14.536Z,9.60
2019-02-27T17:33:40.023Z,9.03
2019-02-27T17:36:21.534Z,9.27
2019-02-27T17:39:04.694Z,9.03
2019-02-27T17:41:46.995Z,9.37
2019-02-27T17:44:27.677Z,9.67
2019-02-27T17:50:00.215Z,11.07
2019-02-27T17:52:40.757Z,13.23
2019-02-27T18:01:13.835Z,13.77
2019-02-27T18:09:30.335Z,13.07
2019-02-27T18:12:12.104Z,13.20
2019-02-27T18:14:52.667Z,12.70
2019-02-27T18:17:34.945Z,14.37
2019-02-27T18:20:15.640Z,14.10
2019-02-27T18:22:56.415Z,14.13
2019-02-27T18:28:32.922Z,13.90
2019-02-27T18:33:56.845Z,15.10
2019-02-27T18:36:46.489Z,14.70
2019-02-27T18:39:14.773Z,14.00
2019-02-27T18:42:02.552Z,15.03
2019-02-27T18:44:50.698Z,16.67
2019-02-27T18:47:39.458Z,14.30
2019-02-27T18:53:18.124Z,15.93
2019-02-27T18:56:05.932Z,21.30
2019-02-27T18:58:55.606Z,20.13
2019-02-27T19:01:45.238Z,22.00
2019-02-27T19:15:30.906Z,21.80
2019-02-27T19:18:11.903Z,21.53
2019-02-27T19:20:53.006Z,20.30
2019-02-27T19:23:33.786Z,19.90
2019-02-27T19:26:14.857Z,19.63
2019-02-27T19:28:59.330Z,18.93
2019-02-27T19:31:37.669Z,18.53
2019-02-27T19:34:18.733Z,23.03
2019-02-27T19:39:53.412Z,24.70
2019-02-27T19:42:33.733Z,23.87
2019-02-27T19:45:14.667Z,23.07
2019-02-27T19:47:58.678Z,21.33
2019-02-27T19:53:23.187Z,20.27
2019-02-27T19:56:03.996Z,19.97
2019-02-27T19:58:44.591Z,19.30
2019-02-27T20:01:25.352Z,24.77
2019-02-27T20:04:08.973Z,22.83
2019-02-27T20:06:48.812Z,24.77
2019-02-27T20:09:29.230Z,27.03
2019-02-27T20:14:54.269Z,23.67
2019-02-27T20:17:36.375Z,20.07
2019-02-27T20:20:16.603Z,20.23
2019-02-27T20:22:57.088Z,19.43
2019-02-27T20:25:43.184Z,21.37
2019-02-27T20:28:20.275Z,23.83
2019-02-27T20:31:00.848Z,22.93
2019-02-27T20:33:41.406Z,21.33
2019-02-27T20:36:22.200Z,21.83
2019-02-27T20:39:04.427Z,21.10
2019-02-27T20:41:45.319Z,21.20
2019-02-27T20:47:26.008Z,20.90
2019-02-27T20:50:06.586Z,18.67
2019-02-27T20:52:49.531Z,19.10
2019-02-27T20:55:30.845Z,19.53
2019-02-27T20:58:16.146Z,19.17
2019-02-27T21:03:37.726Z,19.70
2019-02-27T21:06:17.976Z,19.90
2019-02-27T21:09:01.831Z,18.17
2019-02-27T21:11:42.111Z,15.90
2019-02-27T21:14:24.262Z,40.77
2019-02-27T21:17:05.392Z,22.63
2019-02-27T21:19:46.526Z,17.87
2019-02-27T21:22:27.771Z,15.43
2019-02-27T21:25:08.663Z,15.67
2019-02-27T21:27:49.408Z,15.00
2019-02-27T21:30:30.302Z,14.67
2019-02-27T21:33:12.003Z,13.87
2019-02-27T21:35:52.957Z,15.60
2019-02-27T21:38:33.498Z,30.70
2019-02-27T21:41:14.368Z,21.87
2019-02-27T21:43:56.615Z,18.57
2019-02-27T21:49:20.282Z,14.10
2019-02-27T21:52:00.771Z,12.70
2019-02-27T21:54:44.334Z,13.27
2019-02-27T22:00:13.947Z,12.83
2019-02-27T22:02:54.906Z,13.73
2019-02-27T22:05:42.473Z,12.67
2019-02-27T22:08:17.843Z,12.00
2019-02-27T22:10:58.657Z,12.73
2019-02-27T22:13:42.275Z,12.20
2019-02-27T22:16:23.096Z,11.87
2019-02-27T22:19:03.661Z,11.37
2019-02-27T22:21:44.227Z,10.97
2019-02-27T22:24:25.134Z,10.57
2019-02-27T22:27:05.684Z,11.00
2019-02-27T22:29:46.449Z,10.27
2019-02-27T22:32:27.494Z,10.60
2019-02-27T22:35:08.085Z,10.67
2019-02-27T22:37:52.284Z,10.13
2019-02-27T22:40:31.440Z,10.40
2019-02-27T22:43:11.899Z,10.23
2019-02-27T22:45:55.793Z,9.83
2019-02-27T22:48:36.763Z,10.30
2019-02-27T22:51:17.594Z,9.87
2019-02-27T22:53:59.488Z,10.03
2019-02-27T22:56:40.789Z,10.20
2019-02-27T22:59:21.358Z,9.77
2019-02-27T23:02:01.585Z,9.07
2019-02-27T23:04:42.035Z,9.90
2019-02-27T23:07:22.552Z,10.03
2019-02-27T23:10:03.145Z,9.90
2019-02-27T23:12:43.579Z,10.00
2019-02-27T23:15:25.375Z,10.73
2019-02-27T23:18:06.836Z,10.20
2019-02-27T23:20:47.744Z,11.27
2019-02-27T23:26:41.603Z,11.73
2019-02-27T23:29:22.596Z,11.20
2019-02-27T23:32:03.202Z,10.93
2019-02-27T23:34:43.609Z,11.83
2019-02-27T23:37:29.375Z,11.30
2019-02-27T23:40:07.807Z,10.90
2019-02-27T23:42:48.502Z,10.90
2019-02-27T23:45:29.228Z,10.53
2019-02-27T23:48:10.117Z,11.10
2019-02-27T23:50:51.006Z,10.83
2019-02-27T23:53:31.341Z,10.40
2019-02-27T23:56:11.863Z,9.73
2019-02-27T23:58:52.754Z,9.90
